sensor_id;sensor_type;location;lat;lon;timestamp;P1;durP1;ratioP1;P2;durP2;ratioP2
41887;SDS011;63122;52.424;13.458;2023-05-10T00:01:34;9.13;;;5.45;;
41887;SDS011;63122;52.424;13.458;2023-05-10T00:03:30;6.70;;;5.03;;
41887;SDS011;63122;52.424;13.458;2023-05-10T00:05:31;8.88;;;5.60;;
41887;SDS011;63122;52.424;13.458;2023-05-10T00:07:46;12.98;;;5.80;;
41887;SDS011;63122;52.424;13.458;2023-05-10T00:10:15;11.63;;;5.90;;
41887;SDS011;63122;52.424;13.458;2023-05-10T00:12:31;9.02;;;5.60;;
41887;SDS011;63122;52.424;13.458;2023-05-10T00:14:27;7.85;;;5.53;;
41887;SDS011;63122;52.424;13.458;2023-05-10T00:16:40;9.95;;;5.07;;
41887;SDS011;63122;52.424;13.458;2023-05-10T00:19:04;9.15;;;5.30;;
41887;SDS011;63122;52.424;13.458;2023-05-10T00:21:04;7.47;;;5.25;;
41887;SDS011;63122;52.424;13.458;2023-05-10T00:23:03;7.80;;;5.88;;
41887;SDS011;63122;52.424;13.458;2023-05-10T00:24:58;9.95;;;5.43;;
41887;SDS011;63122;52.424;13.458;2023-05-10T00:26:54;8.75;;;5.50;;
41887;SDS011;63122;52.424;13.458;2023-05-10T00:29:01;8.43;;;5.60;;
41887;SDS011;63122;52.424;13.458;2023-05-10T00:30:58;9.57;;;5.65;;
41887;SDS011;63122;52.424;13.458;2023-05-10T00:33:01;9.85;;;5.35;;
41887;SDS011;63122;52.424;13.458;2023-05-10T00:35:00;7.30;;;5.45;;
41887;SDS011;63122;52.424;13.458;2023-05-10T00:37:13;17.63;;;5.80;;
41887;SDS011;63122;52.424;13.458;2023-05-10T00:39:09;9.07;;;5.20;;
41887;SDS011;63122;52.424;13.458;2023-05-10T00:41:05;13.75;;;5.72;;
41887;SDS011;63122;52.424;13.458;2023-05-10T00:43:01;10.07;;;6.03;;
41887;SDS011;63122;52.424;13.458;2023-05-10T00:44:57;13.60;;;6.03;;
41887;SDS011;63122;52.424;13.458;2023-05-10T00:46:52;7.03;;;5.20;;
41887;SDS011;63122;52.424;13.458;2023-05-10T00:48:50;10.88;;;5.68;;
41887;SDS011;63122;52.424;13.458;2023-05-10T00:50:47;13.40;;;6.10;;
41887;SDS011;63122;52.424;13.458;2023-05-10T00:52:43;6.63;;;5.57;;
41887;SDS011;63122;52.424;13.458;2023-05-10T00:54:38;12.63;;;5.38;;
41887;SDS011;63122;52.424;13.458;2023-05-10T00:56:37;7.95;;;5.80;;
41887;SDS011;63122;52.424;13.458;2023-05-10T00:58:40;10.63;;;5.60;;
41887;SDS011;63122;52.424;13.458;2023-05-10T01:00:38;9.93;;;6.18;;
41887;SDS011;63122;52.424;13.458;2023-05-10T01:02:36;7.78;;;5.55;;
41887;SDS011;63122;52.424;13.458;2023-05-10T01:04:41;7.93;;;5.80;;
41887;SDS011;63122;52.424;13.458;2023-05-10T01:06:46;11.68;;;5.80;;
41887;SDS011;63122;52.424;13.458;2023-05-10T01:08:45;9.73;;;5.97;;
41887;SDS011;63122;52.424;13.458;2023-05-10T01:10:41;8.40;;;5.95;;
41887;SDS011;63122;52.424;13.458;2023-05-10T01:12:39;7.40;;;5.50;;
41887;SDS011;63122;52.424;13.458;2023-05-10T01:14:38;12.75;;;6.43;;
41887;SDS011;63122;52.424;13.458;2023-05-10T01:16:36;7.53;;;6.00;;
41887;SDS011;63122;52.424;13.458;2023-05-10T01:18:34;9.50;;;6.03;;
41887;SDS011;63122;52.424;13.458;2023-05-10T01:20:35;11.85;;;6.45;;
41887;SDS011;63122;52.424;13.458;2023-05-10T01:22:57;11.45;;;7.18;;
41887;SDS011;63122;52.424;13.458;2023-05-10T01:25:25;10.88;;;6.60;;
41887;SDS011;63122;52.424;13.458;2023-05-10T01:27:39;12.63;;;5.95;;
41887;SDS011;63122;52.424;13.458;2023-05-10T01:30:01;8.95;;;6.00;;
41887;SDS011;63122;52.424;13.458;2023-05-10T01:32:13;9.95;;;6.00;;
41887;SDS011;63122;52.424;13.458;2023-05-10T01:34:18;9.65;;;6.40;;
41887;SDS011;63122;52.424;13.458;2023-05-10T01:36:23;9.73;;;6.25;;
41887;SDS011;63122;52.424;13.458;2023-05-10T01:38:26;9.65;;;6.60;;
41887;SDS011;63122;52.424;13.458;2023-05-10T01:40:30;11.75;;;6.05;;
41887;SDS011;63122;52.424;13.458;2023-05-10T01:42:39;10.85;;;6.18;;
41887;SDS011;63122;52.424;13.458;2023-05-10T01:44:54;9.00;;;6.28;;
41887;SDS011;63122;52.424;13.458;2023-05-10T01:46:57;9.43;;;6.20;;
41887;SDS011;63122;52.424;13.458;2023-05-10T01:49:11;10.10;;;5.80;;
41887;SDS011;63122;52.424;13.458;2023-05-10T01:51:29;12.30;;;6.03;;
41887;SDS011;63122;52.424;13.458;2023-05-10T01:53:30;16.75;;;5.88;;
41887;SDS011;63122;52.424;13.458;2023-05-10T01:58:22;9.05;;;6.45;;
41887;SDS011;63122;52.424;13.458;2023-05-10T02:00:22;8.20;;;5.93;;
41887;SDS011;63122;52.424;13.458;2023-05-10T02:02:19;11.00;;;6.10;;
41887;SDS011;63122;52.424;13.458;2023-05-10T02:04:19;10.27;;;6.50;;
41887;SDS011;63122;52.424;13.458;2023-05-10T02:06:18;7.88;;;5.88;;
41887;SDS011;63122;52.424;13.458;2023-05-10T02:08:16;10.10;;;5.80;;
41887;SDS011;63122;52.424;13.458;2023-05-10T02:10:13;16.50;;;6.30;;
41887;SDS011;63122;52.424;13.458;2023-05-10T02:12:12;13.37;;;6.00;;
41887;SDS011;63122;52.424;13.458;2023-05-10T02:14:13;7.90;;;6.00;;
41887;SDS011;63122;52.424;13.458;2023-05-10T02:16:12;11.00;;;6.07;;
41887;SDS011;63122;52.424;13.458;2023-05-10T02:18:09;9.25;;;6.35;;
41887;SDS011;63122;52.424;13.458;2023-05-10T02:20:10;10.93;;;6.20;;
41887;SDS011;63122;52.424;13.458;2023-05-10T02:22:08;8.20;;;5.60;;
41887;SDS011;63122;52.424;13.458;2023-05-10T02:24:05;11.23;;;6.60;;
41887;SDS011;63122;52.424;13.458;2023-05-10T02:26:03;7.47;;;5.60;;
41887;SDS011;63122;52.424;13.458;2023-05-10T02:28:05;9.63;;;6.10;;
41887;SDS011;63122;52.424;13.458;2023-05-10T02:30:04;10.53;;;6.17;;
41887;SDS011;63122;52.424;13.458;2023-05-10T02:32:05;9.00;;;6.00;;
41887;SDS011;63122;52.424;13.458;2023-05-10T02:34:01;12.43;;;5.97;;
41887;SDS011;63122;52.424;13.458;2023-05-10T02:36:02;14.10;;;6.17;;
41887;SDS011;63122;52.424;13.458;2023-05-10T02:37:58;13.53;;;6.10;;
41887;SDS011;63122;52.424;13.458;2023-05-10T02:39:57;8.43;;;6.00;;
41887;SDS011;63122;52.424;13.458;2023-05-10T02:41:58;7.97;;;5.70;;
41887;SDS011;63122;52.424;13.458;2023-05-10T02:44:12;13.27;;;6.37;;
41887;SDS011;63122;52.424;13.458;2023-05-10T02:46:23;10.37;;;6.07;;
41887;SDS011;63122;52.424;13.458;2023-05-10T02:48:37;9.07;;;5.67;;
41887;SDS011;63122;52.424;13.458;2023-05-10T02:50:47;10.57;;;5.80;;
41887;SDS011;63122;52.424;13.458;2023-05-10T02:53:06;9.50;;;5.43;;
41887;SDS011;63122;52.424;13.458;2023-05-10T02:58:12;8.93;;;5.30;;
41887;SDS011;63122;52.424;13.458;2023-05-10T03:00:46;12.43;;;6.20;;
41887;SDS011;63122;52.424;13.458;2023-05-10T03:02:58;9.97;;;5.77;;
41887;SDS011;63122;52.424;13.458;2023-05-10T03:05:06;7.73;;;5.53;;
41887;SDS011;63122;52.424;13.458;2023-05-10T03:07:19;9.23;;;5.40;;
41887;SDS011;63122;52.424;13.458;2023-05-10T03:09:26;9.23;;;5.47;;
41887;SDS011;63122;52.424;13.458;2023-05-10T03:11:53;8.73;;;5.93;;
41887;SDS011;63122;52.424;13.458;2023-05-10T03:14:26;8.20;;;5.30;;
41887;SDS011;63122;52.424;13.458;2023-05-10T03:16:52;8.40;;;5.90;;
41887;SDS011;63122;52.424;13.458;2023-05-10T03:19:21;8.33;;;5.47;;
41887;SDS011;63122;52.424;13.458;2023-05-10T03:21:53;11.13;;;5.70;;
41887;SDS011;63122;52.424;13.458;2023-05-10T03:24:13;11.27;;;5.13;;
41887;SDS011;63122;52.424;13.458;2023-05-10T03:26:30;8.53;;;5.60;;
41887;SDS011;63122;52.424;13.458;2023-05-10T03:28:48;11.80;;;6.13;;
41887;SDS011;63122;52.424;13.458;2023-05-10T03:31:09;8.70;;;5.33;;
41887;SDS011;63122;52.424;13.458;2023-05-10T03:33:12;8.70;;;5.60;;
41887;SDS011;63122;52.424;13.458;2023-05-10T03:35:09;10.77;;;5.53;;
41887;SDS011;63122;52.424;13.458;2023-05-10T03:37:07;8.17;;;5.33;;
41887;SDS011;63122;52.424;13.458;2023-05-10T03:39:06;7.50;;;5.50;;
41887;SDS011;63122;52.424;13.458;2023-05-10T03:41:02;8.17;;;5.47;;
41887;SDS011;63122;52.424;13.458;2023-05-10T03:43:02;10.67;;;5.67;;
41887;SDS011;63122;52.424;13.458;2023-05-10T03:45:01;8.87;;;5.37;;
41887;SDS011;63122;52.424;13.458;2023-05-10T03:46:58;10.63;;;5.90;;
41887;SDS011;63122;52.424;13.458;2023-05-10T03:48:57;10.70;;;5.40;;
41887;SDS011;63122;52.424;13.458;2023-05-10T03:50:56;10.70;;;5.10;;
41887;SDS011;63122;52.424;13.458;2023-05-10T03:52:52;8.53;;;5.33;;
41887;SDS011;63122;52.424;13.458;2023-05-10T03:54:49;8.57;;;5.30;;
41887;SDS011;63122;52.424;13.458;2023-05-10T03:56:45;7.73;;;5.20;;
41887;SDS011;63122;52.424;13.458;2023-05-10T03:58:43;13.73;;;5.57;;
41887;SDS011;63122;52.424;13.458;2023-05-10T04:00:39;12.83;;;5.17;;
41887;SDS011;63122;52.424;13.458;2023-05-10T04:02:39;8.07;;;5.30;;
41887;SDS011;63122;52.424;13.458;2023-05-10T04:04:37;14.53;;;5.37;;
41887;SDS011;63122;52.424;13.458;2023-05-10T04:06:42;8.03;;;5.03;;
41887;SDS011;63122;52.424;13.458;2023-05-10T04:08:42;10.33;;;5.23;;
41887;SDS011;63122;52.424;13.458;2023-05-10T04:10:40;11.87;;;5.53;;
41887;SDS011;63122;52.424;13.458;2023-05-10T04:12:37;8.93;;;5.03;;
41887;SDS011;63122;52.424;13.458;2023-05-10T04:14:36;10.00;;;5.20;;
41887;SDS011;63122;52.424;13.458;2023-05-10T04:16:31;9.17;;;5.00;;
41887;SDS011;63122;52.424;13.458;2023-05-10T04:18:27;8.10;;;5.17;;
41887;SDS011;63122;52.424;13.458;2023-05-10T04:20:22;6.60;;;4.90;;
41887;SDS011;63122;52.424;13.458;2023-05-10T04:22:18;7.10;;;5.10;;
41887;SDS011;63122;52.424;13.458;2023-05-10T04:24:13;8.37;;;5.07;;
41887;SDS011;63122;52.424;13.458;2023-05-10T04:26:09;8.00;;;5.30;;
41887;SDS011;63122;52.424;13.458;2023-05-10T04:28:04;7.83;;;5.00;;
41887;SDS011;63122;52.424;13.458;2023-05-10T04:30:03;6.33;;;4.70;;
41887;SDS011;63122;52.424;13.458;2023-05-10T04:31:59;7.93;;;4.90;;
41887;SDS011;63122;52.424;13.458;2023-05-10T04:33:55;8.20;;;5.00;;
41887;SDS011;63122;52.424;13.458;2023-05-10T04:35:51;8.37;;;5.43;;
41887;SDS011;63122;52.424;13.458;2023-05-10T04:37:46;15.73;;;6.03;;
41887;SDS011;63122;52.424;13.458;2023-05-10T04:39:41;7.67;;;4.47;;
41887;SDS011;63122;52.424;13.458;2023-05-10T04:41:37;9.30;;;5.00;;
41887;SDS011;63122;52.424;13.458;2023-05-10T04:43:32;8.43;;;4.77;;
41887;SDS011;63122;52.424;13.458;2023-05-10T04:45:31;6.33;;;4.30;;
41887;SDS011;63122;52.424;13.458;2023-05-10T04:47:26;11.33;;;5.53;;
41887;SDS011;63122;52.424;13.458;2023-05-10T04:49:21;13.43;;;4.80;;
41887;SDS011;63122;52.424;13.458;2023-05-10T04:51:17;9.57;;;4.87;;
41887;SDS011;63122;52.424;13.458;2023-05-10T04:53:12;8.60;;;4.70;;
41887;SDS011;63122;52.424;13.458;2023-05-10T04:55:08;5.87;;;4.20;;
41887;SDS011;63122;52.424;13.458;2023-05-10T04:57:04;7.57;;;5.07;;
41887;SDS011;63122;52.424;13.458;2023-05-10T04:58:59;14.50;;;4.60;;
41887;SDS011;63122;52.424;13.458;2023-05-10T05:00:59;6.10;;;4.30;;
41887;SDS011;63122;52.424;13.458;2023-05-10T05:03:02;10.20;;;4.53;;
41887;SDS011;63122;52.424;13.458;2023-05-10T05:04:59;7.07;;;4.40;;
41887;SDS011;63122;52.424;13.458;2023-05-10T05:06:54;9.60;;;4.03;;
41887;SDS011;63122;52.424;13.458;2023-05-10T05:08:52;13.93;;;4.43;;
41887;SDS011;63122;52.424;13.458;2023-05-10T05:10:47;6.47;;;4.43;;
41887;SDS011;63122;52.424;13.458;2023-05-10T05:12:43;7.37;;;4.70;;
41887;SDS011;63122;52.424;13.458;2023-05-10T05:14:39;8.30;;;4.53;;
41887;SDS011;63122;52.424;13.458;2023-05-10T05:16:37;5.23;;;4.13;;
41887;SDS011;63122;52.424;13.458;2023-05-10T05:18:33;11.20;;;4.03;;
41887;SDS011;63122;52.424;13.458;2023-05-10T05:20:28;9.60;;;4.33;;
41887;SDS011;63122;52.424;13.458;2023-05-10T05:22:26;9.43;;;4.37;;
41887;SDS011;63122;52.424;13.458;2023-05-10T05:24:22;6.97;;;4.20;;
41887;SDS011;63122;52.424;13.458;2023-05-10T05:26:17;8.27;;;4.40;;
41887;SDS011;63122;52.424;13.458;2023-05-10T05:28:16;8.67;;;4.33;;
41887;SDS011;63122;52.424;13.458;2023-05-10T05:30:12;7.90;;;4.00;;
41887;SDS011;63122;52.424;13.458;2023-05-10T05:32:10;7.20;;;4.30;;
41887;SDS011;63122;52.424;13.458;2023-05-10T05:34:05;5.97;;;4.17;;
41887;SDS011;63122;52.424;13.458;2023-05-10T05:36:01;9.70;;;4.33;;
41887;SDS011;63122;52.424;13.458;2023-05-10T05:37:57;11.37;;;4.73;;
41887;SDS011;63122;52.424;13.458;2023-05-10T05:39:53;5.97;;;3.93;;
41887;SDS011;63122;52.424;13.458;2023-05-10T05:41:48;7.00;;;4.07;;
41887;SDS011;63122;52.424;13.458;2023-05-10T05:43:44;9.17;;;3.87;;
41887;SDS011;63122;52.424;13.458;2023-05-10T05:45:39;6.23;;;4.27;;
41887;SDS011;63122;52.424;13.458;2023-05-10T05:47:37;10.20;;;4.30;;
41887;SDS011;63122;52.424;13.458;2023-05-10T05:49:33;10.73;;;4.40;;
41887;SDS011;63122;52.424;13.458;2023-05-10T05:51:30;8.20;;;3.70;;
41887;SDS011;63122;52.424;13.458;2023-05-10T05:53:26;9.57;;;3.80;;
41887;SDS011;63122;52.424;13.458;2023-05-10T05:55:24;15.00;;;3.93;;
41887;SDS011;63122;52.424;13.458;2023-05-10T05:57:19;12.63;;;4.13;;
41887;SDS011;63122;52.424;13.458;2023-05-10T05:59:15;7.23;;;4.37;;
41887;SDS011;63122;52.424;13.458;2023-05-10T06:01:10;6.77;;;3.67;;
41887;SDS011;63122;52.424;13.458;2023-05-10T06:03:08;6.53;;;4.33;;
41887;SDS011;63122;52.424;13.458;2023-05-10T06:05:04;11.77;;;3.90;;
41887;SDS011;63122;52.424;13.458;2023-05-10T06:07:00;8.47;;;4.00;;
41887;SDS011;63122;52.424;13.458;2023-05-10T06:08:55;11.20;;;3.40;;
41887;SDS011;63122;52.424;13.458;2023-05-10T06:10:51;5.60;;;3.50;;
41887;SDS011;63122;52.424;13.458;2023-05-10T06:12:46;10.73;;;4.20;;
41887;SDS011;63122;52.424;13.458;2023-05-10T06:14:41;7.13;;;3.57;;
41887;SDS011;63122;52.424;13.458;2023-05-10T06:16:37;13.77;;;3.97;;
41887;SDS011;63122;52.424;13.458;2023-05-10T06:18:35;7.53;;;3.40;;
41887;SDS011;63122;52.424;13.458;2023-05-10T06:20:30;9.77;;;3.67;;
41887;SDS011;63122;52.424;13.458;2023-05-10T06:22:26;8.60;;;3.73;;
41887;SDS011;63122;52.424;13.458;2023-05-10T06:24:21;7.80;;;3.37;;
41887;SDS011;63122;52.424;13.458;2023-05-10T06:26:16;5.83;;;3.80;;
41887;SDS011;63122;52.424;13.458;2023-05-10T06:28:12;9.87;;;3.73;;
41887;SDS011;63122;52.424;13.458;2023-05-10T06:30:09;8.37;;;3.27;;
41887;SDS011;63122;52.424;13.458;2023-05-10T06:32:06;4.47;;;3.43;;
41887;SDS011;63122;52.424;13.458;2023-05-10T06:34:04;9.43;;;3.33;;
41887;SDS011;63122;52.424;13.458;2023-05-10T06:36:00;7.77;;;3.70;;
41887;SDS011;63122;52.424;13.458;2023-05-10T06:37:56;10.07;;;3.27;;
41887;SDS011;63122;52.424;13.458;2023-05-10T06:39:52;5.80;;;3.13;;
41887;SDS011;63122;52.424;13.458;2023-05-10T06:41:47;6.23;;;3.17;;
41887;SDS011;63122;52.424;13.458;2023-05-10T06:43:42;5.60;;;3.20;;
41887;SDS011;63122;52.424;13.458;2023-05-10T06:45:38;9.90;;;3.70;;
41887;SDS011;63122;52.424;13.458;2023-05-10T06:47:33;7.63;;;3.30;;
41887;SDS011;63122;52.424;13.458;2023-05-10T06:49:33;6.57;;;3.30;;
41887;SDS011;63122;52.424;13.458;2023-05-10T06:51:29;6.20;;;3.77;;
41887;SDS011;63122;52.424;13.458;2023-05-10T06:53:25;10.87;;;3.63;;
41887;SDS011;63122;52.424;13.458;2023-05-10T06:55:20;11.37;;;3.37;;
41887;SDS011;63122;52.424;13.458;2023-05-10T06:57:15;11.17;;;3.00;;
41887;SDS011;63122;52.424;13.458;2023-05-10T06:59:22;7.63;;;3.20;;
41887;SDS011;63122;52.424;13.458;2023-05-10T07:01:18;11.37;;;3.60;;
41887;SDS011;63122;52.424;13.458;2023-05-10T07:03:13;10.73;;;3.27;;
41887;SDS011;63122;52.424;13.458;2023-05-10T07:05:11;6.00;;;3.30;;
41887;SDS011;63122;52.424;13.458;2023-05-10T07:07:07;4.40;;;3.00;;
41887;SDS011;63122;52.424;13.458;2023-05-10T07:09:03;10.90;;;3.27;;
41887;SDS011;63122;52.424;13.458;2023-05-10T07:11:00;9.60;;;2.70;;
41887;SDS011;63122;52.424;13.458;2023-05-10T07:12:56;13.00;;;3.57;;
41887;SDS011;63122;52.424;13.458;2023-05-10T07:14:52;7.67;;;2.87;;
41887;SDS011;63122;52.424;13.458;2023-05-10T07:16:47;4.70;;;3.37;;
41887;SDS011;63122;52.424;13.458;2023-05-10T07:18:42;10.37;;;3.37;;
41887;SDS011;63122;52.424;13.458;2023-05-10T07:20:41;6.07;;;2.70;;
41887;SDS011;63122;52.424;13.458;2023-05-10T07:22:37;5.77;;;2.97;;
41887;SDS011;63122;52.424;13.458;2023-05-10T07:27:18;7.37;;;2.80;;
41887;SDS011;63122;52.424;13.458;2023-05-10T07:29:17;5.03;;;2.92;;
41887;SDS011;63122;52.424;13.458;2023-05-10T07:31:12;5.20;;;2.90;;
41887;SDS011;63122;52.424;13.458;2023-05-10T07:33:08;4.23;;;2.73;;
41887;SDS011;63122;52.424;13.458;2023-05-10T07:35:04;5.80;;;3.05;;
41887;SDS011;63122;52.424;13.458;2023-05-10T07:37:03;6.78;;;3.30;;
41887;SDS011;63122;52.424;13.458;2023-05-10T07:38:59;7.25;;;3.05;;
41887;SDS011;63122;52.424;13.458;2023-05-10T07:40:54;7.67;;;3.03;;
41887;SDS011;63122;52.424;13.458;2023-05-10T07:42:49;3.95;;;2.78;;
41887;SDS011;63122;52.424;13.458;2023-05-10T07:44:45;10.68;;;2.97;;
41887;SDS011;63122;52.424;13.458;2023-05-10T07:46:40;5.45;;;3.00;;
41887;SDS011;63122;52.424;13.458;2023-05-10T07:48:36;6.18;;;2.90;;
41887;SDS011;63122;52.424;13.458;2023-05-10T07:50:31;5.78;;;3.10;;
41887;SDS011;63122;52.424;13.458;2023-05-10T07:55:43;7.73;;;3.40;;
41887;SDS011;63122;52.424;13.458;2023-05-10T07:57:38;4.15;;;2.67;;
41887;SDS011;63122;52.424;13.458;2023-05-10T07:59:34;6.05;;;2.70;;
41887;SDS011;63122;52.424;13.458;2023-05-10T08:01:31;5.10;;;2.80;;
41887;SDS011;63122;52.424;13.458;2023-05-10T08:07:32;5.75;;;2.90;;
41887;SDS011;63122;52.424;13.458;2023-05-10T08:10:49;6.43;;;2.85;;
41887;SDS011;63122;52.424;13.458;2023-05-10T08:13:23;4.40;;;2.78;;
41887;SDS011;63122;52.424;13.458;2023-05-10T08:16:05;3.90;;;2.90;;
41887;SDS011;63122;52.424;13.458;2023-05-10T08:18:20;4.05;;;2.60;;
41887;SDS011;63122;52.424;13.458;2023-05-10T08:23:24;5.22;;;3.28;;
41887;SDS011;63122;52.424;13.458;2023-05-10T08:25:38;8.02;;;3.08;;
41887;SDS011;63122;52.424;13.458;2023-05-10T08:27:37;8.80;;;3.15;;
41887;SDS011;63122;52.424;13.458;2023-05-10T08:29:33;3.45;;;2.78;;
41887;SDS011;63122;52.424;13.458;2023-05-10T08:31:42;7.68;;;3.95;;
41887;SDS011;63122;52.424;13.458;2023-05-10T08:33:38;6.78;;;2.80;;
41887;SDS011;63122;52.424;13.458;2023-05-10T08:35:36;5.38;;;3.17;;
41887;SDS011;63122;52.424;13.458;2023-05-10T08:37:31;9.48;;;3.40;;
41887;SDS011;63122;52.424;13.458;2023-05-10T08:39:28;9.02;;;3.13;;
41887;SDS011;63122;52.424;13.458;2023-05-10T08:41:29;6.20;;;2.97;;
41887;SDS011;63122;52.424;13.458;2023-05-10T08:43:50;6.65;;;2.65;;
41887;SDS011;63122;52.424;13.458;2023-05-10T08:48:45;4.65;;;2.90;;
41887;SDS011;63122;52.424;13.458;2023-05-10T08:50:49;9.40;;;2.80;;
41887;SDS011;63122;52.424;13.458;2023-05-10T08:53:28;6.13;;;2.92;;
41887;SDS011;63122;52.424;13.458;2023-05-10T08:56:20;11.43;;;2.85;;
41887;SDS011;63122;52.424;13.458;2023-05-10T08:59:41;15.32;;;2.85;;
41887;SDS011;63122;52.424;13.458;2023-05-10T09:01:57;3.88;;;2.78;;
41887;SDS011;63122;52.424;13.458;2023-05-10T09:03:53;12.02;;;3.13;;
41887;SDS011;63122;52.424;13.458;2023-05-10T09:06:05;3.88;;;2.97;;
41887;SDS011;63122;52.424;13.458;2023-05-10T09:08:06;4.07;;;2.80;;
41887;SDS011;63122;52.424;13.458;2023-05-10T09:10:11;4.82;;;2.67;;
41887;SDS011;63122;52.424;13.458;2023-05-10T09:12:10;10.77;;;3.63;;
41887;SDS011;63122;52.424;13.458;2023-05-10T09:14:08;4.65;;;2.63;;
41887;SDS011;63122;52.424;13.458;2023-05-10T09:16:08;5.68;;;2.72;;
41887;SDS011;63122;52.424;13.458;2023-05-10T09:18:14;11.73;;;3.83;;
41887;SDS011;63122;52.424;13.458;2023-05-10T09:20:12;5.25;;;2.85;;
41887;SDS011;63122;52.424;13.458;2023-05-10T09:22:10;4.72;;;2.60;;
41887;SDS011;63122;52.424;13.458;2023-05-10T09:24:08;6.47;;;2.60;;
41887;SDS011;63122;52.424;13.458;2023-05-10T09:26:05;5.82;;;2.67;;
41887;SDS011;63122;52.424;13.458;2023-05-10T09:28:01;7.90;;;2.85;;
41887;SDS011;63122;52.424;13.458;2023-05-10T09:29:57;8.27;;;3.03;;
41887;SDS011;63122;52.424;13.458;2023-05-10T09:32:02;6.57;;;2.60;;
41887;SDS011;63122;52.424;13.458;2023-05-10T09:34:07;7.72;;;3.83;;
41887;SDS011;63122;52.424;13.458;2023-05-10T09:36:06;13.35;;;3.00;;
41887;SDS011;63122;52.424;13.458;2023-05-10T09:38:04;6.15;;;2.80;;
41887;SDS011;63122;52.424;13.458;2023-05-10T09:40:00;6.88;;;3.15;;
41887;SDS011;63122;52.424;13.458;2023-05-10T09:42:01;6.88;;;2.97;;
41887;SDS011;63122;52.424;13.458;2023-05-10T09:44:59;13.30;;;3.97;;
41887;SDS011;63122;52.424;13.458;2023-05-10T09:47:25;7.82;;;2.97;;
41887;SDS011;63122;52.424;13.458;2023-05-10T09:54:11;6.60;;;2.97;;
41887;SDS011;63122;52.424;13.458;2023-05-10T09:59:06;7.13;;;2.47;;
41887;SDS011;63122;52.424;13.458;2023-05-10T10:14:57;12.57;;;2.70;;
41887;SDS011;63122;52.424;13.458;2023-05-10T10:17:00;8.77;;;2.88;;
41887;SDS011;63122;52.424;13.458;2023-05-10T10:19:00;4.00;;;2.47;;
41887;SDS011;63122;52.424;13.458;2023-05-10T10:20:56;7.25;;;2.70;;
41887;SDS011;63122;52.424;13.458;2023-05-10T10:22:51;6.35;;;3.03;;
41887;SDS011;63122;52.424;13.458;2023-05-10T10:24:48;6.38;;;2.60;;
41887;SDS011;63122;52.424;13.458;2023-05-10T10:26:47;7.47;;;2.40;;
41887;SDS011;63122;52.424;13.458;2023-05-10T10:28:51;9.63;;;2.60;;
41887;SDS011;63122;52.424;13.458;2023-05-10T10:30:56;6.38;;;2.75;;
41887;SDS011;63122;52.424;13.458;2023-05-10T10:33:08;4.65;;;2.80;;
41887;SDS011;63122;52.424;13.458;2023-05-10T10:35:19;8.85;;;2.70;;
41887;SDS011;63122;52.424;13.458;2023-05-10T10:37:16;5.60;;;2.58;;
41887;SDS011;63122;52.424;13.458;2023-05-10T10:39:15;8.18;;;2.63;;
41887;SDS011;63122;52.424;13.458;2023-05-10T10:41:28;4.30;;;2.60;;
41887;SDS011;63122;52.424;13.458;2023-05-10T10:43:38;12.18;;;3.10;;
41887;SDS011;63122;52.424;13.458;2023-05-10T10:46:12;5.05;;;2.78;;
41887;SDS011;63122;52.424;13.458;2023-05-10T10:48:20;4.28;;;2.30;;
41887;SDS011;63122;52.424;13.458;2023-05-10T10:50:24;7.50;;;2.83;;
41887;SDS011;63122;52.424;13.458;2023-05-10T10:52:38;8.90;;;2.50;;
41887;SDS011;63122;52.424;13.458;2023-05-10T10:54:53;11.18;;;3.88;;
41887;SDS011;63122;52.424;13.458;2023-05-10T10:57:17;7.05;;;2.80;;
41887;SDS011;63122;52.424;13.458;2023-05-10T10:59:41;4.55;;;2.70;;
41887;SDS011;63122;52.424;13.458;2023-05-10T11:01:59;8.13;;;2.28;;
41887;SDS011;63122;52.424;13.458;2023-05-10T11:04:16;8.45;;;2.45;;
41887;SDS011;63122;52.424;13.458;2023-05-10T12:03:06;11.43;;;2.20;;
41887;SDS011;63122;52.424;13.458;2023-05-10T12:05:14;6.47;;;2.47;;
41887;SDS011;63122;52.424;13.458;2023-05-10T12:07:09;5.43;;;2.60;;
41887;SDS011;63122;52.424;13.458;2023-05-10T12:09:05;4.13;;;2.30;;
41887;SDS011;63122;52.424;13.458;2023-05-10T12:11:36;7.72;;;2.53;;
41887;SDS011;63122;52.424;13.458;2023-05-10T12:13:37;10.35;;;2.50;;
41887;SDS011;63122;52.424;13.458;2023-05-10T12:19:53;7.53;;;2.92;;
41887;SDS011;63122;52.424;13.458;2023-05-10T12:33:44;8.98;;;2.10;;
41887;SDS011;63122;52.424;13.458;2023-05-10T14:38:04;3.85;;;1.80;;
41887;SDS011;63122;52.424;13.458;2023-05-10T14:46:21;7.30;;;2.30;;
41887;SDS011;63122;52.424;13.458;2023-05-10T14:48:59;9.50;;;2.40;;
41887;SDS011;63122;52.424;13.458;2023-05-10T14:50:55;6.85;;;2.00;;
41887;SDS011;63122;52.424;13.458;2023-05-10T14:52:52;2.90;;;1.98;;
41887;SDS011;63122;52.424;13.458;2023-05-10T14:54:50;4.45;;;2.25;;
41887;SDS011;63122;52.424;13.458;2023-05-10T14:56:45;8.52;;;2.10;;
41887;SDS011;63122;52.424;13.458;2023-05-10T14:58:44;3.42;;;1.80;;
41887;SDS011;63122;52.424;13.458;2023-05-10T15:00:50;7.03;;;2.15;;
41887;SDS011;63122;52.424;13.458;2023-05-10T15:02:46;5.53;;;2.00;;
41887;SDS011;63122;52.424;13.458;2023-05-10T15:04:42;2.88;;;2.30;;
41887;SDS011;63122;52.424;13.458;2023-05-10T15:06:40;8.48;;;2.25;;
41887;SDS011;63122;52.424;13.458;2023-05-10T15:08:35;4.05;;;2.03;;
41887;SDS011;63122;52.424;13.458;2023-05-10T15:10:34;5.38;;;2.05;;
41887;SDS011;63122;52.424;13.458;2023-05-10T15:12:29;6.03;;;2.20;;
41887;SDS011;63122;52.424;13.458;2023-05-10T15:14:25;12.27;;;2.00;;
41887;SDS011;63122;52.424;13.458;2023-05-10T15:16:22;4.40;;;2.00;;
41887;SDS011;63122;52.424;13.458;2023-05-10T15:18:17;2.90;;;1.92;;
41887;SDS011;63122;52.424;13.458;2023-05-10T15:20:15;8.02;;;2.03;;
41887;SDS011;63122;52.424;13.458;2023-05-10T15:22:11;4.38;;;1.98;;
41887;SDS011;63122;52.424;13.458;2023-05-10T15:24:07;7.75;;;2.17;;
41887;SDS011;63122;52.424;13.458;2023-05-10T15:26:09;3.80;;;1.90;;
41887;SDS011;63122;52.424;13.458;2023-05-10T15:28:04;5.80;;;2.20;;
41887;SDS011;63122;52.424;13.458;2023-05-10T15:30:09;5.40;;;1.90;;
41887;SDS011;63122;52.424;13.458;2023-05-10T15:32:05;5.85;;;2.45;;
41887;SDS011;63122;52.424;13.458;2023-05-10T15:34:05;10.35;;;2.17;;
41887;SDS011;63122;52.424;13.458;2023-05-10T15:36:00;9.23;;;2.15;;
41887;SDS011;63122;52.424;13.458;2023-05-10T15:38:01;9.98;;;2.20;;
41887;SDS011;63122;52.424;13.458;2023-05-10T15:39:56;5.60;;;2.10;;
41887;SDS011;63122;52.424;13.458;2023-05-10T15:42:08;11.55;;;2.03;;
41887;SDS011;63122;52.424;13.458;2023-05-10T15:44:04;2.58;;;1.90;;
41887;SDS011;63122;52.424;13.458;2023-05-10T15:46:06;2.75;;;1.88;;
41887;SDS011;63122;52.424;13.458;2023-05-10T15:48:08;9.32;;;2.13;;
41887;SDS011;63122;52.424;13.458;2023-05-10T15:50:06;3.20;;;1.80;;
41887;SDS011;63122;52.424;13.458;2023-05-10T15:52:05;6.65;;;2.08;;
41887;SDS011;63122;52.424;13.458;2023-05-10T15:54:16;6.30;;;2.50;;
41887;SDS011;63122;52.424;13.458;2023-05-10T15:56:49;21.58;;;2.40;;
41887;SDS011;63122;52.424;13.458;2023-05-10T15:58:48;3.70;;;2.10;;
41887;SDS011;63122;52.424;13.458;2023-05-10T16:00:43;6.47;;;2.15;;
41887;SDS011;63122;52.424;13.458;2023-05-10T16:02:39;5.93;;;2.40;;
41887;SDS011;63122;52.424;13.458;2023-05-10T16:04:34;3.88;;;2.20;;
41887;SDS011;63122;52.424;13.458;2023-05-10T16:06:30;5.82;;;2.10;;
41887;SDS011;63122;52.424;13.458;2023-05-10T16:08:33;7.63;;;2.40;;